createdAt,value
2023-02-23T00:01:19.604Z,9.8
2023-02-23T00:04:18.845Z,8.4625
2023-02-23T00:07:20.220Z,8.45
2023-02-23T00:11:17.478Z,10.25
2023-02-23T00:14:17.016Z,9.1
2023-02-23T00:17:18.083Z,8.549999999999999
2023-02-23T00:21:19.461Z,11.0625
2023-02-23T00:24:20.052Z,10.7
2023-02-23T00:27:20.230Z,11.4625
2023-02-23T00:31:17.256Z,12.2375
2023-02-23T00:34:19.000Z,10.225
2023-02-23T00:37:16.927Z,9.9625
2023-02-23T00:41:17.995Z,13.1
2023-02-23T00:44:17.141Z,10.1375
2023-02-23T00:47:17.134Z,12.162499999999998
2023-02-23T00:51:17.683Z,12.7
2023-02-23T00:54:18.129Z,9.8125
2023-02-23T00:57:16.346Z,10.0125
2023-02-23T01:01:16.957Z,11
2023-02-23T01:04:17.171Z,9.6375
2023-02-23T01:07:16.458Z,9.625
2023-02-23T01:11:19.372Z,10.2625
2023-02-23T01:14:16.986Z,8.9375
2023-02-23T01:17:18.541Z,9.3625
2023-02-23T01:21:20.177Z,10.287500000000001
2023-02-23T01:24:16.814Z,9.4625
2023-02-23T01:27:16.686Z,8.662500000000001
2023-02-23T01:31:17.445Z,11.425
2023-02-23T01:34:17.517Z,7.925000000000001
2023-02-23T01:37:16.421Z,10.0125
2023-02-23T01:41:17.397Z,10.2125
2023-02-23T01:45:26.834Z,9.6125
2023-02-23T01:47:20.581Z,9.2125
2023-02-23T01:51:20.401Z,9.75
2023-02-23T01:54:22.935Z,8.787500000000001
2023-02-23T01:57:19.813Z,9.1875
2023-02-23T02:01:17.758Z,10.575
2023-02-23T02:04:17.512Z,8.5
2023-02-23T02:07:21.277Z,8.775
2023-02-23T02:11:26.649Z,10.625
2023-02-23T02:14:19.513Z,9.475
2023-02-23T02:17:28.380Z,9.475000000000001
2023-02-23T02:22:16.565Z,10.8875
2023-02-23T02:25:21.907Z,9.0125
2023-02-23T02:27:32.986Z,11.05
2023-02-23T02:41:22.411Z,11.5625
2023-02-23T02:44:26.885Z,10.350000000000001
2023-02-23T02:47:22.345Z,9.5625
2023-02-23T02:51:24.814Z,11.287500000000001
2023-02-23T02:54:25.026Z,9.362499999999999
2023-02-23T02:57:19.288Z,10.337499999999999
2023-02-23T04:21:16.424Z,11.3875
2023-02-23T04:24:16.456Z,9.5125
2023-02-23T04:27:16.612Z,9.6125
2023-02-23T04:31:19.016Z,11.3
2023-02-23T04:34:16.407Z,10.0875
2023-02-23T04:37:16.592Z,10.95
2023-02-23T04:41:15.698Z,10.512500000000001
2023-02-23T04:44:16.059Z,11.05
2023-02-23T04:47:16.623Z,10.3875
2023-02-23T04:51:16.923Z,11.587499999999999
2023-02-23T04:54:17.189Z,10.3125
2023-02-23T04:57:16.663Z,10.737499999999999
2023-02-23T05:01:17.137Z,11.5625
2023-02-23T05:04:16.840Z,11.325000000000001
2023-02-23T05:07:17.422Z,12.375
2023-02-23T05:11:18.340Z,10.1
2023-02-23T05:14:16.576Z,9.825
2023-02-23T05:17:17.141Z,10.0875
2023-02-23T05:21:17.552Z,11.2
2023-02-23T05:24:18.182Z,10.6125
2023-02-23T05:27:18.676Z,9.375
2023-02-23T05:31:16.018Z,9.3875
2023-02-23T05:34:17.120Z,9.3125
2023-02-23T05:37:16.350Z,9.5375
2023-02-23T05:41:18.623Z,9.6
2023-02-23T05:44:17.288Z,8.65
2023-02-23T05:47:16.578Z,9.6875
2023-02-23T05:51:17.942Z,11.125
2023-02-23T05:54:17.272Z,10.2875
2023-02-23T05:57:17.082Z,9.275
2023-02-23T06:01:16.799Z,9.575
2023-02-23T06:04:17.725Z,8.8
2023-02-23T06:07:16.362Z,8.525
2023-02-23T06:11:17.020Z,11.0625
2023-02-23T06:14:17.194Z,9.075
2023-02-23T06:17:17.551Z,10.575
2023-02-23T06:21:16.791Z,10.625
2023-02-23T06:24:18.519Z,11.25
2023-02-23T06:27:17.116Z,10.5625
2023-02-23T06:31:17.024Z,11.6
2023-02-23T06:34:17.433Z,10.274999999999999
2023-02-23T06:37:17.013Z,10.775
2023-02-23T06:41:15.868Z,11.4375
2023-02-23T06:44:16.242Z,11.0125
2023-02-23T06:47:16.667Z,10.325000000000001
2023-02-23T06:51:16.930Z,10.5625
2023-02-23T06:54:17.029Z,10.3875
2023-02-23T06:57:17.409Z,10.6375
2023-02-23T07:01:17.795Z,11.975
2023-02-23T07:11:17.703Z,11.837499999999999
2023-02-23T07:14:26.151Z,14.149999999999999
2023-02-23T07:17:18.122Z,11.8625
2023-02-23T07:21:16.535Z,14.25
2023-02-23T07:24:16.677Z,13.287500000000001
2023-02-23T07:27:17.026Z,12.100000000000001
2023-02-23T07:31:16.758Z,13.5375
2023-02-23T07:34:17.184Z,11.3125
2023-02-23T07:37:17.539Z,10.9375
2023-02-23T07:41:16.419Z,11.4125
2023-02-23T07:44:16.719Z,11.774999999999999
2023-02-23T07:47:16.682Z,12.4875
2023-02-23T07:51:17.814Z,13.975000000000001
2023-02-23T07:54:16.965Z,15.5625
2023-02-23T07:57:17.078Z,15.362499999999999
2023-02-23T08:01:16.606Z,13.05
2023-02-23T08:04:16.876Z,12.899999999999999
2023-02-23T08:07:16.739Z,12.162500000000001
2023-02-23T08:11:16.136Z,13.6125
2023-02-23T08:14:16.296Z,13.35
2023-02-23T08:17:16.466Z,13
2023-02-23T08:21:16.018Z,12.6875
2023-02-23T08:24:16.668Z,11.475000000000001
2023-02-23T08:27:16.379Z,12.2375
2023-02-23T08:31:19.013Z,12.4875
2023-02-23T08:34:17.283Z,12.9125
2023-02-23T08:37:17.266Z,12.95
2023-02-23T08:41:17.336Z,13.525
2023-02-23T08:44:16.751Z,13.1625
2023-02-23T08:47:17.034Z,10.9375
2023-02-23T08:51:16.889Z,12.662500000000001
2023-02-23T08:54:17.901Z,10.912500000000001
2023-02-23T08:57:17.913Z,10.0625
2023-02-23T09:01:19.901Z,12.2375
2023-02-23T09:04:17.201Z,11.2625
2023-02-23T09:07:17.399Z,10.1875
2023-02-23T09:11:16.537Z,12.0625
2023-02-23T09:14:16.828Z,10.375
2023-02-23T09:17:18.070Z,9.325
2023-02-23T09:21:20.523Z,10.287500000000001
2023-02-23T09:24:19.682Z,8.799999999999999
2023-02-23T09:27:16.442Z,9.3625
2023-02-23T09:31:19.897Z,11.5625
2023-02-23T09:34:16.799Z,10.6875
2023-02-23T09:37:16.876Z,10.6875
2023-02-23T09:41:44.825Z,12.9875
2023-02-23T09:44:24.204Z,13.05
2023-02-23T09:47:28.525Z,14.2125
2023-02-23T09:51:21.363Z,13.575
2023-02-23T09:54:18.062Z,12.375
2023-02-23T09:57:22.838Z,13.175
2023-02-23T10:01:50.602Z,12.712499999999999
2023-02-23T10:04:22.190Z,12.075
2023-02-23T10:07:23.764Z,12.4125
2023-02-23T10:11:26.247Z,13.2375
2023-02-23T10:14:29.295Z,11.675
2023-02-23T10:17:28.437Z,11.6875
2023-02-23T10:21:24.744Z,11.6125
2023-02-23T10:24:21.436Z,10.8375
2023-02-23T10:27:20.426Z,10.787500000000001
2023-02-23T10:31:26.908Z,12.95
2023-02-23T10:34:17.688Z,12.5125
2023-02-23T10:37:17.023Z,13.2125
2023-02-23T10:41:15.842Z,12.725000000000001
2023-02-23T10:44:21.040Z,12.8
2023-02-23T10:47:20.747Z,13.524999999999999
2023-02-23T10:51:22.650Z,15.1125
2023-02-23T10:54:51.093Z,13.8125
2023-02-23T10:57:24.616Z,12.7875
2023-02-23T11:01:32.826Z,14.275
2023-02-23T11:04:21.177Z,13.4375
2023-02-23T11:07:20.347Z,13.8375
2023-02-23T11:11:22.840Z,15.274999999999999
2023-02-23T11:14:16.815Z,12.75
2023-02-23T11:17:28.702Z,13.0125
2023-02-23T11:21:22.676Z,14.200000000000001
2023-02-23T11:24:21.633Z,12.8625
2023-02-23T11:27:21.470Z,12.45
2023-02-23T11:31:19.856Z,11.775
2023-02-23T11:34:28.162Z,11.899999999999999
2023-02-23T11:37:20.106Z,12.175
2023-02-23T11:41:20.610Z,12.55
2023-02-23T11:44:20.572Z,11.9125
2023-02-23T11:47:20.145Z,12.75
2023-02-23T11:51:24.852Z,14.325
2023-02-23T11:54:21.918Z,12.637500000000001
2023-02-23T11:57:20.885Z,11.8375
2023-02-23T12:01:20.870Z,13.925
2023-02-23T12:04:31.554Z,12.1375
2023-02-23T12:07:25.240Z,13.4125
2023-02-23T12:11:20.990Z,12.75
2023-02-23T12:14:26.948Z,11.625
2023-02-23T12:17:23.286Z,11.825
2023-02-23T12:21:26.756Z,12.212499999999999
2023-02-23T12:24:24.715Z,11.3125
2023-02-23T12:27:23.823Z,10.45
2023-02-23T12:31:24.476Z,11.725
2023-02-23T12:34:23.240Z,10.575
2023-02-23T12:37:29.167Z,12.8625
2023-02-23T12:41:25.219Z,11.35
2023-02-23T12:44:33.597Z,11.4625
2023-02-23T12:47:26.787Z,12.212499999999999
2023-02-23T12:51:24.843Z,12.5375
2023-02-23T12:54:17.902Z,12.325
2023-02-23T12:57:26.168Z,12.7375
2023-02-23T13:01:23.726Z,13.65
2023-02-23T13:04:29.262Z,13.5
2023-02-23T13:07:21.906Z,12.85
2023-02-23T13:11:24.860Z,15.0875
2023-02-23T13:14:26.034Z,11.9375
2023-02-23T13:17:32.337Z,11.8625
2023-02-23T13:21:23.628Z,12.462499999999999
2023-02-23T13:24:23.270Z,12.55
2023-02-23T13:27:24.607Z,11.675
2023-02-23T13:31:23.333Z,12.7
2023-02-23T13:34:23.236Z,10.850000000000001
2023-02-23T13:37:20.024Z,11.525
2023-02-23T13:41:30.047Z,12.875
2023-02-23T13:44:27.072Z,11.6125
2023-02-23T13:47:33.964Z,12.575
2023-02-23T13:51:22.943Z,12.875
2023-02-23T13:54:24.097Z,12.575
2023-02-23T13:57:16.868Z,10.3875
2023-02-23T14:01:20.529Z,12.6375
2023-02-23T14:04:23.635Z,11.125
2023-02-23T14:07:26.530Z,11.9375
2023-02-23T14:11:50.883Z,11.400000000000002
2023-02-23T14:14:40.176Z,11.075
2023-02-23T14:21:28.166Z,12.475000000000001
2023-02-23T14:24:20.710Z,10.55
2023-02-23T14:27:39.809Z,10.1125
2023-02-23T14:31:19.353Z,12.7125
2023-02-23T14:34:20.077Z,10.3875
2023-02-23T14:37:22.420Z,10.025
2023-02-23T14:41:21.072Z,12.3625
2023-02-23T14:44:30.000Z,8.799999999999999
2023-02-23T14:47:19.211Z,11
2023-02-23T14:51:22.595Z,10.85
2023-02-23T14:54:29.220Z,9.75
2023-02-23T14:57:21.550Z,9.862499999999999
2023-02-23T15:01:32.118Z,11.649999999999999
2023-02-23T15:04:18.389Z,11
2023-02-23T15:07:25.562Z,11.3375
2023-02-23T15:11:16.675Z,11.7875
2023-02-23T15:14:27.669Z,9.875
2023-02-23T15:17:18.914Z,10.425
2023-02-23T15:21:19.583Z,10.5625
2023-02-23T15:24:21.852Z,8.8625
2023-02-23T15:27:19.566Z,10.075
2023-02-23T15:31:16.578Z,8.55
2023-02-23T15:34:21.840Z,8.912500000000001
2023-02-23T15:37:25.724Z,9.525
2023-02-23T15:41:26.674Z,10.1625
2023-02-23T15:44:24.193Z,7.9
2023-02-23T15:47:21.183Z,7.975
2023-02-23T15:51:26.196Z,7.800000000000001
2023-02-23T15:54:21.150Z,8.4
2023-02-23T15:57:19.703Z,8.3625
2023-02-23T16:01:21.363Z,8.95
2023-02-23T16:04:18.019Z,8.2625
2023-02-23T16:07:18.886Z,9.2875
2023-02-23T16:11:17.372Z,9.85
2023-02-23T16:14:18.485Z,9.025
2023-02-23T16:17:24.804Z,7.200000000000001
2023-02-23T16:21:21.065Z,8.775
2023-02-23T16:24:25.846Z,9.075
2023-02-23T16:27:16.332Z,9.6
2023-02-23T16:31:23.207Z,9.6
2023-02-23T16:34:22.842Z,7.675
2023-02-23T16:37:19.790Z,7.3375
2023-02-23T16:41:20.313Z,8.462500000000002
2023-02-23T16:44:19.141Z,7.3875
2023-02-23T16:47:33.704Z,7.7250000000000005
2023-02-23T16:51:18.287Z,10.7
2023-02-23T16:54:16.328Z,7.2875
2023-02-23T16:57:20.739Z,7.5249999999999995
2023-02-23T17:01:18.025Z,7.3375
2023-02-23T17:04:17.304Z,7.7124999999999995
2023-02-23T17:07:17.335Z,7.8375
2023-02-23T17:11:16.578Z,7.9625
2023-02-23T17:14:24.367Z,7.5249999999999995
2023-02-23T17:17:18.690Z,6.775
2023-02-23T17:21:17.703Z,8.2875
2023-02-23T17:24:16.919Z,7.675
2023-02-23T17:27:16.473Z,7.9625
2023-02-23T17:31:18.490Z,9.3625
2023-02-23T17:34:16.872Z,10.1875
2023-02-23T17:37:16.626Z,11.475
2023-02-23T17:41:19.333Z,11.5125
2023-02-23T17:44:16.329Z,14.3
2023-02-23T17:47:16.781Z,10.549999999999999
2023-02-23T17:51:17.021Z,10.600000000000001
2023-02-23T17:54:16.502Z,9.162500000000001
2023-02-23T17:57:16.544Z,7.862499999999999
2023-02-23T18:01:17.846Z,8.6375
2023-02-23T18:04:17.048Z,9.7125
2023-02-23T18:07:18.107Z,8.2
2023-02-23T18:11:18.913Z,12.9125
2023-02-23T18:14:17.308Z,13.675
2023-02-23T18:17:16.738Z,11.8875
2023-02-23T18:21:19.172Z,13.5125
2023-02-23T18:24:17.036Z,11
2023-02-23T18:27:16.968Z,9.75
2023-02-23T18:31:18.811Z,14.649999999999999
2023-02-23T18:34:16.352Z,13.5375
2023-02-23T18:37:25.678Z,10.55
2023-02-23T18:41:16.735Z,17.2625
2023-02-23T18:44:17.294Z,13.8
2023-02-23T18:47:16.548Z,11.875
2023-02-23T18:51:17.611Z,12.362499999999999
2023-02-23T18:54:19.108Z,11.912500000000001
2023-02-23T18:57:16.955Z,12.45
2023-02-23T19:01:20.570Z,14.024999999999999
2023-02-23T19:04:17.006Z,11.8875
2023-02-23T19:07:18.582Z,11.4375
2023-02-23T19:11:15.812Z,12.8
2023-02-23T19:14:17.806Z,12.9375
2023-02-23T19:17:16.022Z,13.05
2023-02-23T19:21:18.860Z,14.7
2023-02-23T19:24:16.468Z,12.425
2023-02-23T19:27:18.098Z,13.225000000000001
2023-02-23T19:31:19.771Z,12.275
2023-02-23T19:34:16.848Z,12.200000000000001
2023-02-23T19:37:16.648Z,11.325
2023-02-23T19:41:19.269Z,13.875
2023-02-23T19:44:17.103Z,14.2875
2023-02-23T19:47:16.786Z,14.075
2023-02-23T19:51:16.051Z,13.85
2023-02-23T19:54:16.343Z,12.024999999999999
2023-02-23T19:57:16.308Z,12.925
2023-02-23T20:01:20.439Z,12.5125
2023-02-23T20:04:16.706Z,13.625
2023-02-23T20:07:17.394Z,14.3125
2023-02-23T20:11:15.868Z,15.587499999999999
2023-02-23T20:14:17.255Z,18.0875
2023-02-23T20:17:16.116Z,13.087499999999999
2023-02-23T20:21:18.619Z,12.5375
2023-02-23T20:24:19.342Z,12.525
2023-02-23T20:27:20.271Z,13.075
2023-02-23T20:31:23.297Z,15.787500000000001
2023-02-23T20:34:22.195Z,18.6625
2023-02-23T20:37:20.860Z,16.575
2023-02-23T20:41:18.271Z,21.4875
2023-02-23T20:44:19.494Z,15.287499999999998
2023-02-23T20:47:16.953Z,13.9
2023-02-23T20:51:20.311Z,15.087500000000002
2023-02-23T20:54:16.812Z,11.987499999999999
2023-02-23T20:57:16.653Z,13.787500000000001
2023-02-23T21:01:20.382Z,17.2625
2023-02-23T21:04:16.929Z,15.712499999999999
2023-02-23T21:07:16.717Z,18.6875
2023-02-23T21:11:18.183Z,19.5
2023-02-23T21:14:17.150Z,18.387500000000003
2023-02-23T21:17:17.010Z,17.2875
2023-02-23T21:21:16.776Z,16.700000000000003
2023-02-23T21:24:18.312Z,16.2375
2023-02-23T21:27:16.512Z,15.575
2023-02-23T21:31:16.405Z,13.6875
2023-02-23T21:34:19.279Z,13.2375
2023-02-23T21:37:16.646Z,15.55
2023-02-23T21:41:16.394Z,14.4125
2023-02-23T21:44:16.818Z,12.7625
2023-02-23T21:47:16.743Z,12.5
2023-02-23T21:51:16.780Z,15.8875
2023-02-23T21:54:18.582Z,12.4875
2023-02-23T21:57:16.792Z,13.149999999999999
2023-02-23T22:01:19.358Z,14.1375
2023-02-23T22:04:16.905Z,12.037500000000001
2023-02-23T22:07:16.945Z,11.899999999999999
2023-02-23T22:11:20.401Z,13.024999999999999
2023-02-23T22:14:16.992Z,12.774999999999999
2023-02-23T22:17:19.529Z,13.2
2023-02-23T22:21:15.956Z,16.425
2023-02-23T22:24:16.859Z,13.412500000000001
2023-02-23T22:27:16.255Z,13.975
2023-02-23T22:31:16.423Z,14.825
2023-02-23T22:34:17.206Z,13.025
2023-02-23T22:37:16.486Z,13.8625
2023-02-23T22:41:15.982Z,14.95
2023-02-23T22:44:19.137Z,13.7375
2023-02-23T22:47:16.408Z,13.4125
2023-02-23T22:51:17.238Z,15.25
2023-02-23T22:54:17.517Z,14.2875
2023-02-23T22:57:16.018Z,13.649999999999999
2023-02-23T23:01:18.064Z,15.225
2023-02-23T23:04:17.253Z,13.425
2023-02-23T23:07:20.126Z,13.85
2023-02-23T23:11:18.487Z,14.412500000000001
2023-02-23T23:14:19.349Z,14.3625
2023-02-23T23:17:16.355Z,14.0125
2023-02-23T23:21:17.834Z,16.4375
2023-02-23T23:24:16.218Z,14.1875
2023-02-23T23:27:16.498Z,14.174999999999999
2023-02-23T23:31:21.928Z,15.924999999999999
2023-02-23T23:34:17.052Z,15.787500000000001
2023-02-23T23:37:18.680Z,14.0625
2023-02-23T23:41:16.890Z,14.4625
2023-02-23T23:44:18.100Z,13.325
2023-02-23T23:47:15.957Z,13.787500000000001
2023-02-23T23:51:15.983Z,15.3
2023-02-23T23:54:19.563Z,14.8125
2023-02-23T23:57:17.331Z,14.3625
